Observation data for Tulia on 01/12/2018      Previous  Date  Next       Current Mesonet Observations  Soil Data  Daily Summary Page  Observations in Plain Language
KTIS 120605Z 29000KT M06/M11 A3026 RMK A01 T10611107  RH  071%=      5-min Rain = 0
KTIS 120610Z 27001KT M07/M11 A3025 RMK A01 T10651110  RH  071%=      5-min Rain = 0
KTIS 120615Z 24003KT M07/M11 A3025 RMK A01 T10691113  RH  072%=      5-min Rain = 0
KTIS 120620Z 23004KT M07/M12 A3025 RMK A01 T10721115  RH  072%=      5-min Rain = 0
KTIS 120625Z 23004KT M07/M12 A3026 RMK A01 T10721116  RH  072%=      5-min Rain = 0
KTIS 120630Z 23004KT M07/M12 A3025 RMK A01 T10721117  RH  072%=      5-min Rain = 0
KTIS 120635Z 23003KT M07/M12 A3025 RMK A01 T10721115  RH  072%=      5-min Rain = 0
KTIS 120640Z 24003KT M07/M11 A3025 RMK A01 T10711114  RH  072%=      5-min Rain = 0
KTIS 120645Z 24002KT M07/M11 A3025 RMK A01 T10701114  RH  072%=      5-min Rain = 0
KTIS 120650Z 25002KT M07/M11 A3025 RMK A01 T10701113  RH  072%=      5-min Rain = 0
KTIS 120655Z 25002KT M08/M12 A3025 RMK A01 T10751118  RH  072%=      5-min Rain = 0
KTIS 120700Z 25002KT M08/M12 A3024 RMK A01 T10791116  RH  076%=      5-min Rain = 0
KTIS 120705Z 25001KT M08/M12 A3024 RMK A01 T10831116  RH  078%=      5-min Rain = 0
KTIS 120710Z 00000KT M09/M12 A3023 RMK A01 T10861118  RH  079%=      5-min Rain = 0
KTIS 120715Z 00000KT M09/M12 A3023 RMK A01 T10911124  RH  078%=      5-min Rain = 0
KTIS 120720Z 35000KT M10/M13 A3023 RMK A01 T10951126  RH  079%=      5-min Rain = 0
KTIS 120725Z 36001KT M10/M13 A3023 RMK A01 T10981128  RH  080%=      5-min Rain = 0
KTIS 120730Z 00001KT M10/M12 A3023 RMK A01 T10961123  RH  082%=      5-min Rain = 0
KTIS 120735Z 34002KT M10/M13 A3023 RMK A01 T10991125  RH  082%=      5-min Rain = 0
KTIS 120740Z 32004KT M10/M13 A3023 RMK A01 T11011125  RH  084%=      5-min Rain = 0
KTIS 120745Z 30004KT M10/M12 A3023 RMK A01 T10991122  RH  085%=      5-min Rain = 0
KTIS 120750Z 28003KT M10/M12 A3023 RMK A01 T10971121  RH  084%=      5-min Rain = 0
KTIS 120755Z 28003KT M09/M12 A3023 RMK A01 T10941117  RH  085%=      5-min Rain = 0
KTIS 120800Z 26002KT M09/M12 A3023 RMK A01 T10921116  RH  084%=      5-min Rain = 0
KTIS 120805Z 26003KT M09/M11 A3023 RMK A01 T10891114  RH  083%=      5-min Rain = 0
KTIS 120810Z 26004KT M09/M11 A3023 RMK A01 T10851114  RH  081%=      5-min Rain = 0
KTIS 120815Z 26001KT M08/M11 A3024 RMK A01 T10831112  RH  081%=      5-min Rain = 0
KTIS 120820Z 26005KT M08/M12 A3024 RMK A01 T10831115  RH  079%=      5-min Rain = 0
KTIS 120825Z 27002KT M08/M11 A3024 RMK A01 T10831112  RH  080%=      5-min Rain = 0
KTIS 120830Z 26005KT M08/M11 A3024 RMK A01 T10791109  RH  080%=      5-min Rain = 0
KTIS 120835Z 25003KT M08/M11 A3024 RMK A01 T10801112  RH  078%=      5-min Rain = 0
KTIS 120840Z 25005KT M08/M12 A3024 RMK A01 T10821117  RH  077%=      5-min Rain = 0
KTIS 120845Z 24003KT M08/M12 A3023 RMK A01 T10831115  RH  079%=      5-min Rain = 0
KTIS 120850Z 25004KT M08/M11 A3023 RMK A01 T10801113  RH  078%=      5-min Rain = 0
KTIS 120855Z 22003KT M08/M11 A3022 RMK A01 T10791114  RH  077%=      5-min Rain = 0
KTIS 120900Z 22005KT M08/M11 A3021 RMK A01 T10791114  RH  077%=      5-min Rain = 0
KTIS 120905Z 21005KT M08/M12 A3021 RMK A01 T10771115  RH  075%=      5-min Rain = 0
KTIS 120910Z 20005KT M08/M12 A3021 RMK A01 T10771115  RH  075%=      5-min Rain = 0
KTIS 120915Z 22005KT M08/M11 A3021 RMK A01 T10761113  RH  076%=      5-min Rain = 0
KTIS 120920Z 21006KT M08/M11 A3021 RMK A01 T10771114  RH  076%=      5-min Rain = 0
KTIS 120925Z 21006KT M08/M11 A3021 RMK A01 T10791114  RH  077%=      5-min Rain = 0
KTIS 120930Z 21005KT M08/M11 A302 RMK A01 T10791113  RH  077%=      5-min Rain = 0
KTIS 120935Z 21005KT M08/M11 A3021 RMK A01 T10781112  RH  077%=      5-min Rain = 0
KTIS 120940Z 21005KT M08/M11 A3021 RMK A01 T10771112  RH  077%=      5-min Rain = 0
KTIS 120945Z 21005KT M08/M12 A3021 RMK A01 T10771115  RH  075%=      5-min Rain = 0
KTIS 120950Z 20005KT M08/M12 A3021 RMK A01 T10791117  RH  075%=      5-min Rain = 0
KTIS 120955Z 20006KT M08/M12 A302 RMK A01 T10821119  RH  075%=      5-min Rain = 0
KTIS 121000Z 20006KT M08/M12 A3021 RMK A01 T10781115  RH  076%=      5-min Rain = 0
KTIS 121005Z 21006KT M07/M11 A302 RMK A01 T10741114  RH  074%=      5-min Rain = 0
KTIS 121010Z 21006KT M07/M11 A3021 RMK A01 T10741114  RH  074%=      5-min Rain = 0
KTIS 121015Z 21006KT M08/M11 A3021 RMK A01 T10771114  RH  076%=      5-min Rain = 0
KTIS 121020Z 21005KT M08/M11 A302 RMK A01 T10761113  RH  076%=      5-min Rain = 0
KTIS 121025Z 21005KT M07/M11 A302 RMK A01 T10741113  RH  075%=      5-min Rain = 0
KTIS 121030Z 20006KT M07/M11 A302 RMK A01 T10731114  RH  073%=      5-min Rain = 0
KTIS 121035Z 21006KT M08/M12 A302 RMK A01 T10751115  RH  074%=      5-min Rain = 0
KTIS 121040Z 21006KT M07/M11 A302 RMK A01 T10741114  RH  074%=      5-min Rain = 0
KTIS 121045Z 22005KT M08/M12 A3021 RMK A01 T10761115  RH  075%=      5-min Rain = 0
KTIS 121050Z 22004KT M08/M11 A3021 RMK A01 T10771114  RH  076%=      5-min Rain = 0
KTIS 121055Z 22004KT M08/M11 A3021 RMK A01 T10771113  RH  076%=      5-min Rain = 0
KTIS 121100Z 22004KT M07/M11 A3021 RMK A01 T10741110  RH  076%=      5-min Rain = 0
KTIS 121105Z 22005KT M07/M11 A3021 RMK A01 T10721110  RH  075%=      5-min Rain = 0
KTIS 121110Z 22005KT M07/M11 A3021 RMK A01 T10731112  RH  075%=      5-min Rain = 0
KTIS 121115Z 22005KT M08/M12 A3021 RMK A01 T10761115  RH  075%=      5-min Rain = 0
KTIS 121120Z 22005KT M07/M11 A302 RMK A01 T10731110  RH  076%=      5-min Rain = 0
KTIS 121125Z 22005KT M07/M11 A302 RMK A01 T10701109  RH  075%=      5-min Rain = 0
KTIS 121130Z 22005KT M07/M11 A302 RMK A01 T10691107  RH  075%=      5-min Rain = 0
KTIS 121135Z 21005KT M07/M11 A302 RMK A01 T10671107  RH  074%=      5-min Rain = 0
KTIS 121140Z 21005KT M07/M11 A302 RMK A01 T10671109  RH  073%=      5-min Rain = 0
KTIS 121145Z 21006KT M07/M11 A302 RMK A01 T10691111  RH  073%=      5-min Rain = 0
KTIS 121150Z 21005KT M07/M11 A302 RMK A01 T10711112  RH  073%=      5-min Rain = 0
KTIS 121155Z 22005KT M07/M11 A302 RMK A01 T10711112  RH  074%=      5-min Rain = 0
KTIS 121200Z 23005KT M08/M11 A302 RMK A01 T10751114  RH  074%=      5-min Rain = 0
KTIS 121205Z 23006KT M08/M12 A302 RMK A01 T10791117  RH  075%=      5-min Rain = 0
KTIS 121210Z 22006KT M08/M12 A302 RMK A01 T10801115  RH  077%=      5-min Rain = 0
KTIS 121215Z 22006KT M08/M11 A302 RMK A01 T10791113  RH  077%=      5-min Rain = 0
KTIS 121220Z 22007KT M08/M11 A302 RMK A01 T10761111  RH  077%=      5-min Rain = 0
KTIS 121225Z 22008KT M07/M11 A302 RMK A01 T10721109  RH  076%=      5-min Rain = 0
KTIS 121230Z 22007KT M07/M11 A302 RMK A01 T10681107  RH  075%=      5-min Rain = 0
KTIS 121235Z 22008KT M07/M11 A302 RMK A01 T10671107  RH  074%=      5-min Rain = 0
KTIS 121240Z 22008KT M07/M11 A302 RMK A01 T10671108  RH  074%=      5-min Rain = 0
KTIS 121245Z 21008KT M07/M11 A3019 RMK A01 T10691109  RH  074%=      5-min Rain = 0
KTIS 121250Z 21008KT M07/M11 A3019 RMK A01 T10701110  RH  074%=      5-min Rain = 0
KTIS 121255Z 21008KT M07/M11 A302 RMK A01 T10701110  RH  074%=      5-min Rain = 0
KTIS 121300Z 22007KT M07/M11 A302 RMK A01 T10711110  RH  074%=      5-min Rain = 0
KTIS 121305Z 21007KT M07/M11 A302 RMK A01 T10711110  RH  075%=      5-min Rain = 0
KTIS 121310Z 21006KT M07/M11 A302 RMK A01 T10691110  RH  074%=      5-min Rain = 0
KTIS 121315Z 21006KT M07/M11 A302 RMK A01 T10691110  RH  074%=      5-min Rain = 0
KTIS 121320Z 21006KT M07/M11 A302 RMK A01 T10711111  RH  074%=      5-min Rain = 0
KTIS 121325Z 21006KT M07/M11 A302 RMK A01 T10731112  RH  075%=      5-min Rain = 0
KTIS 121330Z 21006KT M08/M12 A3021 RMK A01 T10771115  RH  075%=      5-min Rain = 0
KTIS 121335Z 21007KT M08/M11 A3021 RMK A01 T10801114  RH  078%=      5-min Rain = 0
KTIS 121340Z 21007KT M08/M11 A3021 RMK A01 T10761111  RH  077%=      5-min Rain = 0
KTIS 121345Z 23006KT M08/M11 A3022 RMK A01 T10771113  RH  076%=      5-min Rain = 0
KTIS 121350Z 22006KT M08/M11 A3022 RMK A01 T10781112  RH  078%=      5-min Rain = 0
KTIS 121355Z 22006KT M08/M11 A3022 RMK A01 T10771111  RH  078%=      5-min Rain = 0
KTIS 121400Z 21007KT M08/M11 A3022 RMK A01 T10751109  RH  077%=      5-min Rain = 0
KTIS 121405Z 21007KT M07/M11 A3022 RMK A01 T10721109  RH  076%=      5-min Rain = 0
KTIS 121410Z 21008KT M07/M11 A3021 RMK A01 T10701108  RH  075%=      5-min Rain = 0
KTIS 121415Z 20007KT M07/M11 A3022 RMK A01 T10681107  RH  075%=      5-min Rain = 0
KTIS 121420Z 20007KT M07/M11 A3022 RMK A01 T10671107  RH  074%=      5-min Rain = 0
KTIS 121425Z 21007KT M07/M11 A3022 RMK A01 T10671106  RH  075%=      5-min Rain = 0
KTIS 121430Z 21007KT M06/M10 A3022 RMK A01 T10621104  RH  074%=      5-min Rain = 0
KTIS 121435Z 21006KT M06/M10 A3022 RMK A01 T10581101  RH  072%=      5-min Rain = 0
KTIS 121440Z 20006KT M05/M10 A3022 RMK A01 T10541099  RH  072%=      5-min Rain = 0
KTIS 121445Z 20005KT M05/M10 A3022 RMK A01 T10521097  RH  072%=      5-min Rain = 0
KTIS 121450Z 19006KT M05/M09 A3022 RMK A01 T10471094  RH  071%=      5-min Rain = 0
KTIS 121455Z 19007KT M04/M09 A3022 RMK A01 T10431092  RH  069%=      5-min Rain = 0
KTIS 121500Z 19008KT M04/M09 A3022 RMK A01 T10381091  RH  068%=      5-min Rain = 0
KTIS 121505Z 18007KT M03/M09 A3022 RMK A01 T10331087  RH  067%=      5-min Rain = 0
KTIS 121510Z 18008KT M03/M09 A3022 RMK A01 T10301086  RH  066%=      5-min Rain = 0
KTIS 121515Z 19011KT M03/M08 A3022 RMK A01 T10261083  RH  065%=      5-min Rain = 0
KTIS 121520Z 19013KT M02/M08 A3021 RMK A01 T10201081  RH  064%=      5-min Rain = 0
KTIS 121525Z 19013G18KT M02/M08 A3021 RMK A01 T10161080  RH  062%=      5-min Rain = 0
KTIS 121530Z 19013G18KT M01/M08 A3021 RMK A01 T10131079  RH  061%=      5-min Rain = 0
KTIS 121535Z 19015KT M01/M08 A302 RMK A01 T10111079  RH  061%=      5-min Rain = 0
KTIS 121540Z 19015G20KT M01/M08 A302 RMK A01 T10081078  RH  060%=      5-min Rain = 0
KTIS 121545Z 19013KT M01/M08 A3021 RMK A01 T10051078  RH  058%=      5-min Rain = 0
KTIS 121550Z 18012G17KT M00/M08 A3022 RMK A01 T10031078  RH  058%=      5-min Rain = 0
KTIS 121555Z 19011KT 00/08 A3022 RMK A01 T00-00-77  RH  057%=      5-min Rain = 0
KTIS 121600Z 18013KT 00/M08 A3022 RMK A01 T00021078  RH  056%=      5-min Rain = 0
KTIS 121605Z 18015KT 00/M08 A3022 RMK A01 T00021079  RH  055%=      5-min Rain = 0
KTIS 121610Z 18014KT 00/M08 A3022 RMK A01 T00031079  RH  055%=      5-min Rain = 0
KTIS 121615Z 18013KT 01/M08 A3022 RMK A01 T00051079  RH  054%=      5-min Rain = 0
KTIS 121620Z 18013KT 01/M08 A3022 RMK A01 T00071080  RH  053%=      5-min Rain = 0
KTIS 121625Z 19013KT 01/M08 A3022 RMK A01 T00101079  RH  052%=      5-min Rain = 0
KTIS 121630Z 19013KT 01/M08 A3022 RMK A01 T00131078  RH  051%=      5-min Rain = 0
KTIS 121635Z 19013KT 02/M08 A3022 RMK A01 T00181078  RH  050%=      5-min Rain = 0
KTIS 121640Z 18014KT 02/M08 A3022 RMK A01 T00171079  RH  049%=      5-min Rain = 0
KTIS 121645Z 19015KT 02/M08 A3022 RMK A01 T00201080  RH  048%=      5-min Rain = 0
KTIS 121650Z 19013KT 02/M08 A3022 RMK A01 T00211080  RH  048%=      5-min Rain = 0
KTIS 121655Z 19013KT 03/M08 A3022 RMK A01 T00281080  RH  045%=      5-min Rain = 0
KTIS 121700Z 18014KT 03/M08 A3022 RMK A01 T00301083  RH  044%=      5-min Rain = 0
KTIS 121705Z 18012KT 03/M08 A3021 RMK A01 T00331082  RH  043%=      5-min Rain = 0
KTIS 121710Z 18013KT 04/M08 A3021 RMK A01 T00351084  RH  042%=      5-min Rain = 0
KTIS 121715Z 19014G19KT 04/M09 A3021 RMK A01 T00351085  RH  041%=      5-min Rain = 0
KTIS 121720Z 18016KT 04/M09 A302 RMK A01 T00381088  RH  040%=      5-min Rain = 0
KTIS 121725Z 17015G20KT 04/M09 A302 RMK A01 T00391087  RH  040%=      5-min Rain = 0
KTIS 121730Z 18016KT 04/M09 A302 RMK A01 T00411088  RH  039%=      5-min Rain = 0
KTIS 121735Z 17016G21KT 04/M09 A3019 RMK A01 T00431085  RH  039%=      5-min Rain = 0
KTIS 121740Z 18014G19KT 05/M09 A3019 RMK A01 T00471086  RH  038%=      5-min Rain = 0
KTIS 121745Z 17015G20KT 05/M09 A3018 RMK A01 T00501088  RH  037%=      5-min Rain = 0
KTIS 121750Z 17017KT 05/M09 A3018 RMK A01 T00511091  RH  035%=      5-min Rain = 0
KTIS 121755Z 17016KT 05/M09 A3017 RMK A01 T00521093  RH  035%=      5-min Rain = 0
KTIS 121800Z 17016G22KT 06/M09 A3017 RMK A01 T00571094  RH  033%=      5-min Rain = 0
KTIS 121805Z 18018G23KT 06/M10 A3017 RMK A01 T00561096  RH  033%=      5-min Rain = 0
KTIS 121810Z 18018G24KT 06/M10 A3016 RMK A01 T00561095  RH  033%=      5-min Rain = 0
KTIS 121815Z 19017G22KT 06/M09 A3016 RMK A01 T00591094  RH  033%=      5-min Rain = 0
KTIS 121820Z 18019G24KT 06/M10 A3016 RMK A01 T00581096  RH  032%=      5-min Rain = 0
KTIS 121825Z 18018G23KT 06/M10 A3016 RMK A01 T00581096  RH  032%=      5-min Rain = 0
KTIS 121830Z 19019G24KT 06/M10 A3015 RMK A01 T00601096  RH  032%=      5-min Rain = 0
KTIS 121835Z 18018KT 06/M10 A3014 RMK A01 T00621095  RH  032%=      5-min Rain = 0
KTIS 121840Z 18017KT 06/M09 A3013 RMK A01 T00621094  RH  032%=      5-min Rain = 0
KTIS 121845Z 19018KT 06/M09 A3013 RMK A01 T00631092  RH  032%=      5-min Rain = 0
KTIS 121850Z 18018G23KT 06/M09 A3013 RMK A01 T00641092  RH  032%=      5-min Rain = 0
KTIS 121855Z 18016G21KT 07/M09 A3013 RMK A01 T00651091  RH  032%=      5-min Rain = 0
KTIS 121900Z 18017G22KT 07/M09 A3013 RMK A01 T00651091  RH  032%=      5-min Rain = 0
KTIS 121905Z 18016KT 07/M09 A3012 RMK A01 T00701090  RH  031%=      5-min Rain = 0
KTIS 121910Z 19017G23KT 07/M09 A3012 RMK A01 T00721089  RH  031%=      5-min Rain = 0
KTIS 121915Z 19016G21KT 07/M09 A3012 RMK A01 T00711089  RH  031%=      5-min Rain = 0
KTIS 121920Z 19016G23KT 07/M09 A3012 RMK A01 T00741088  RH  031%=      5-min Rain = 0
KTIS 121925Z 19015KT 08/M09 A3012 RMK A01 T00751088  RH  031%=      5-min Rain = 0
KTIS 121930Z 19016KT 08/M09 A3012 RMK A01 T00771088  RH  030%=      5-min Rain = 0
KTIS 121935Z 18015G20KT 08/M09 A3011 RMK A01 T00761089  RH  030%=      5-min Rain = 0
KTIS 121940Z 19015G21KT 08/M09 A3011 RMK A01 T00781089  RH  030%=      5-min Rain = 0
KTIS 121945Z 19015G20KT 08/M09 A3011 RMK A01 T00801089  RH  030%=      5-min Rain = 0
KTIS 121950Z 19015G25KT 08/M09 A3011 RMK A01 T00811088  RH  030%=      5-min Rain = 0
KTIS 121955Z 20016G21KT 08/M09 A301 RMK A01 T00831086  RH  029%=      5-min Rain = 0
KTIS 122000Z 20016KT 08/M09 A301 RMK A01 T00831086  RH  030%=      5-min Rain = 0
KTIS 122005Z 20014G19KT 09/M09 A301 RMK A01 T00851086  RH  029%=      5-min Rain = 0
KTIS 122010Z 20016G25KT 09/M09 A301 RMK A01 T00871085  RH  029%=      5-min Rain = 0
KTIS 122015Z 20014KT 09/M09 A301 RMK A01 T00871085  RH  029%=      5-min Rain = 0
KTIS 122020Z 19015KT 09/M09 A301 RMK A01 T00901085  RH  028%=      5-min Rain = 0
KTIS 122025Z 20015G20KT 09/M08 A301 RMK A01 T00911084  RH  029%=      5-min Rain = 0
KTIS 122030Z 19016G25KT 09/M09 A3009 RMK A01 T00891085  RH  029%=      5-min Rain = 0
KTIS 122035Z 19013G18KT 09/M08 A3009 RMK A01 T00931084  RH  028%=      5-min Rain = 0
KTIS 122040Z 18014G19KT 09/M08 A3009 RMK A01 T00941084  RH  028%=      5-min Rain = 0
KTIS 122045Z 18014KT 09/M09 A3009 RMK A01 T00921085  RH  028%=      5-min Rain = 0
KTIS 122050Z 19013KT 09/M08 A3009 RMK A01 T00941084  RH  028%=      5-min Rain = 0
KTIS 122055Z 18014G21KT 10/M08 A3009 RMK A01 T00961083  RH  028%=      5-min Rain = 0
KTIS 122100Z 17013KT 09/M08 A3009 RMK A01 T00941083  RH  028%=      5-min Rain = 0
KTIS 122105Z 19012KT 10/M08 A3009 RMK A01 T00961081  RH  028%=      5-min Rain = 0
KTIS 122110Z 20011G16KT 10/M08 A3009 RMK A01 T00981079  RH  028%=      5-min Rain = 0
KTIS 122115Z 19014KT 10/M08 A3009 RMK A01 T00981080  RH  028%=      5-min Rain = 0
KTIS 122120Z 18013KT 10/M08 A3009 RMK A01 T00981080  RH  028%=      5-min Rain = 0
KTIS 122125Z 18012G20KT 10/M08 A3009 RMK A01 T00981080  RH  028%=      5-min Rain = 0
KTIS 122130Z 17013G18KT 10/M08 A3009 RMK A01 T01001079  RH  028%=      5-min Rain = 0
KTIS 122135Z 17013G18KT 10/M08 A3009 RMK A01 T01011079  RH  028%=      5-min Rain = 0
KTIS 122140Z 18011G16KT 10/M08 A3009 RMK A01 T01001080  RH  028%=      5-min Rain = 0
KTIS 122145Z 18012KT 10/M08 A301 RMK A01 T00981080  RH  028%=      5-min Rain = 0
KTIS 122150Z 18011KT 10/M08 A301 RMK A01 T00981080  RH  028%=      5-min Rain = 0
KTIS 122155Z 17012G18KT 10/M08 A301 RMK A01 T00991078  RH  028%=      5-min Rain = 0
KTIS 122200Z 17013KT 10/M08 A3009 RMK A01 T00961081  RH  028%=      5-min Rain = 0
KTIS 122205Z 17012KT 09/M08 A3009 RMK A01 T00921081  RH  029%=      5-min Rain = 0
KTIS 122210Z 17013KT 09/M08 A3009 RMK A01 T00921081  RH  029%=      5-min Rain = 0
KTIS 122215Z 17013KT 10/M08 A3009 RMK A01 T00961080  RH  028%=      5-min Rain = 0
KTIS 122220Z 17013KT 10/M08 A301 RMK A01 T00961080  RH  028%=      5-min Rain = 0
KTIS 122225Z 18012KT 10/M08 A301 RMK A01 T00951081  RH  028%=      5-min Rain = 0
KTIS 122230Z 17012KT 09/M08 A301 RMK A01 T00931082  RH  028%=      5-min Rain = 0
KTIS 122235Z 16012KT 09/M08 A301 RMK A01 T00911082  RH  029%=      5-min Rain = 0
KTIS 122240Z 16011KT 09/M08 A3011 RMK A01 T00931082  RH  029%=      5-min Rain = 0
KTIS 122245Z 16010KT 09/M08 A3011 RMK A01 T00941082  RH  028%=      5-min Rain = 0
KTIS 122250Z 16012KT 09/M08 A3011 RMK A01 T00941082  RH  028%=      5-min Rain = 0
KTIS 122255Z 15011KT 09/M08 A3011 RMK A01 T00921083  RH  029%=      5-min Rain = 0
KTIS 122300Z 15012KT 09/M08 A3012 RMK A01 T00891084  RH  029%=      5-min Rain = 0
KTIS 122305Z 15010KT 09/M08 A3012 RMK A01 T00881084  RH  029%=      5-min Rain = 0
KTIS 122310Z 15011KT 08/M09 A3012 RMK A01 T00841085  RH  030%=      5-min Rain = 0
KTIS 122315Z 14010KT 08/M09 A3012 RMK A01 T00821085  RH  030%=      5-min Rain = 0
KTIS 122320Z 14010KT 08/M09 A3012 RMK A01 T00811085  RH  030%=      5-min Rain = 0
KTIS 122325Z 14009KT 08/M09 A3013 RMK A01 T00781085  RH  031%=      5-min Rain = 0
KTIS 122330Z 14010KT 08/M09 A3013 RMK A01 T00751086  RH  031%=      5-min Rain = 0
KTIS 122335Z 14010KT 07/M09 A3013 RMK A01 T00711087  RH  032%=      5-min Rain = 0
KTIS 122340Z 14009KT 07/M09 A3013 RMK A01 T00671088  RH  033%=      5-min Rain = 0
KTIS 122345Z 14010KT 06/M09 A3013 RMK A01 T00631088  RH  033%=      5-min Rain = 0
KTIS 122350Z 14009KT 06/M09 A3014 RMK A01 T00611088  RH  034%=      5-min Rain = 0
KTIS 122355Z 14009KT 06/M09 A3014 RMK A01 T00561088  RH  035%=      5-min Rain = 0
KTIS 130000Z 14009KT 05/M09 A3015 RMK A01 T00511089  RH  036%=      5-min Rain = 0
KTIS 130005Z 14009KT 05/M09 A3015 RMK A01 T00481090  RH  037%=      5-min Rain = 0
KTIS 130010Z 13007KT 04/M09 A3016 RMK A01 T00431087  RH  039%=      5-min Rain = 0
KTIS 130015Z 13007KT 04/M08 A3016 RMK A01 T00391084  RH  041%=      5-min Rain = 0
KTIS 130020Z 13006KT 03/M08 A3016 RMK A01 T00321080  RH  044%=      5-min Rain = 0
KTIS 130025Z 13007KT 03/M08 A3017 RMK A01 T00281080  RH  045%=      5-min Rain = 0
KTIS 130030Z 13006KT 03/M08 A3017 RMK A01 T00251082  RH  046%=      5-min Rain = 0
KTIS 130035Z 12007KT 02/M08 A3018 RMK A01 T00201079  RH  048%=      5-min Rain = 0
KTIS 130040Z 11006KT 02/M08 A3018 RMK A01 T00181077  RH  050%=      5-min Rain = 0
KTIS 130045Z 09006KT 01/M08 A3019 RMK A01 T00121083  RH  050%=      5-min Rain = 0
KTIS 130050Z 08008KT 01/M10 A3019 RMK A01 T00081096  RH  047%=      5-min Rain = 0
KTIS 130055Z 07009KT 01/M09 A302 RMK A01 T00051094  RH  048%=      5-min Rain = 0
KTIS 130100Z 07009KT 00/M10 A302 RMK A01 T00011098  RH  048%=      5-min Rain = 0
KTIS 130105Z 06009KT 00/M10 A3021 RMK A01 T00011099  RH  047%=      5-min Rain = 0
KTIS 130110Z 07009KT 00/M10 A3021 RMK A01 T00011101  RH  047%=      5-min Rain = 0
KTIS 130115Z 07010KT 00/M10 A3021 RMK A01 T00031100  RH  046%=      5-min Rain = 0
KTIS 130120Z 06009KT 00/M10 A3022 RMK A01 T00031101  RH  046%=      5-min Rain = 0
KTIS 130125Z 06008KT 00/M10 A3023 RMK A01 T00041103  RH  045%=      5-min Rain = 0
KTIS 130130Z 06010KT 01/M10 A3024 RMK A01 T00051103  RH  045%=      5-min Rain = 0
KTIS 130135Z 06010KT 01/M10 A3024 RMK A01 T00071104  RH  044%=      5-min Rain = 0
KTIS 130140Z 06011KT 01/M11 A3025 RMK A01 T00091105  RH  043%=      5-min Rain = 0
KTIS 130145Z 06011KT 01/M11 A3025 RMK A01 T00091106  RH  043%=      5-min Rain = 0
KTIS 130150Z 06011KT 01/M11 A3026 RMK A01 T00091107  RH  042%=      5-min Rain = 0
KTIS 130155Z 07011KT 01/M11 A3026 RMK A01 T00091107  RH  042%=      5-min Rain = 0
KTIS 130200Z 07010KT 01/M11 A3027 RMK A01 T00081108  RH  042%=      5-min Rain = 0
KTIS 130205Z 07010KT 01/M11 A3027 RMK A01 T00061107  RH  043%=      5-min Rain = 0
KTIS 130210Z 08010KT 01/M11 A3027 RMK A01 T00051106  RH  044%=      5-min Rain = 0
KTIS 130215Z 10012KT 01/M10 A3026 RMK A01 T00061104  RH  044%=      5-min Rain = 0
KTIS 130220Z 10013G18KT 01/M11 A3026 RMK A01 T00091108  RH  042%=      5-min Rain = 0
KTIS 130225Z 08012KT 01/M11 A3028 RMK A01 T00111112  RH  040%=      5-min Rain = 0
KTIS 130230Z 07009KT 01/M11 A3029 RMK A01 T00101113  RH  040%=      5-min Rain = 0
KTIS 130235Z 06010KT 01/M11 A303 RMK A01 T00051112  RH  041%=      5-min Rain = 0
KTIS 130240Z 08009KT 00/M11 A3029 RMK A01 T00011110  RH  043%=      5-min Rain = 0
KTIS 130245Z 08008KT M00/M11 A303 RMK A01 T10021107  RH  045%=      5-min Rain = 0
KTIS 130250Z 08009KT M00/M11 A303 RMK A01 T10031109  RH  045%=      5-min Rain = 0
KTIS 130255Z 07008KT M00/M11 A3031 RMK A01 T10041111  RH  045%=      5-min Rain = 0
KTIS 130300Z 07007KT M01/M12 A3032 RMK A01 T10101115  RH  046%=      5-min Rain = 0
KTIS 130305Z 06007KT M02/M12 A3032 RMK A01 T10161117  RH  047%=      5-min Rain = 0
KTIS 130310Z 06009KT M02/M12 A3033 RMK A01 T10191119  RH  047%=      5-min Rain = 0
KTIS 130315Z 06009KT M02/M12 A3034 RMK A01 T10211120  RH  047%=      5-min Rain = 0
KTIS 130320Z 06008KT M02/M12 A3034 RMK A01 T10231120  RH  048%=      5-min Rain = 0
KTIS 130325Z 06008KT M03/M12 A3034 RMK A01 T10251120  RH  049%=      5-min Rain = 0
KTIS 130330Z 06007KT M03/M12 A3035 RMK A01 T10281122  RH  049%=      5-min Rain = 0
KTIS 130335Z 06008KT M03/M12 A3035 RMK A01 T10311123  RH  050%=      5-min Rain = 0
KTIS 130340Z 06007KT M03/M12 A3035 RMK A01 T10321123  RH  050%=      5-min Rain = 0
KTIS 130345Z 06007KT M04/M13 A3036 RMK A01 T10351125  RH  050%=      5-min Rain = 0
KTIS 130350Z 06007KT M04/M13 A3036 RMK A01 T10381125  RH  051%=      5-min Rain = 0
KTIS 130355Z 06007KT M04/M13 A3036 RMK A01 T10411126  RH  052%=      5-min Rain = 0
KTIS 130400Z 06006KT M04/M13 A3036 RMK A01 T10431127  RH  053%=      5-min Rain = 0
KTIS 130405Z 07005KT M05/M13 A3036 RMK A01 T10451127  RH  054%=      5-min Rain = 0
KTIS 130410Z 08005KT M05/M12 A3037 RMK A01 T10481124  RH  056%=      5-min Rain = 0
KTIS 130415Z 08005KT M05/M12 A3037 RMK A01 T10501119  RH  059%=      5-min Rain = 0
KTIS 130420Z 08004KT M05/M12 A3037 RMK A01 T10521119  RH  060%=      5-min Rain = 0
KTIS 130425Z 08003KT M05/M12 A3037 RMK A01 T10521119  RH  060%=      5-min Rain = 0
KTIS 130430Z 08004KT M05/M12 A3037 RMK A01 T10511123  RH  058%=      5-min Rain = 0
KTIS 130435Z 07003KT M05/M13 A3038 RMK A01 T10491127  RH  055%=      5-min Rain = 0
KTIS 130440Z 06004KT M05/M13 A3038 RMK A01 T10491128  RH  055%=      5-min Rain = 0
KTIS 130445Z 05004KT M05/M13 A3038 RMK A01 T10491128  RH  055%=      5-min Rain = 0
KTIS 130450Z 04003KT M05/M13 A3038 RMK A01 T10521133  RH  054%=      5-min Rain = 0
KTIS 130455Z 03003KT M06/M13 A3039 RMK A01 T10591134  RH  056%=      5-min Rain = 0
KTIS 130500Z 04004KT M06/M13 A3039 RMK A01 T10621131  RH  059%=      5-min Rain = 0
KTIS 130505Z 04005KT M06/M13 A3039 RMK A01 T10561129  RH  057%=      5-min Rain = 0
KTIS 130510Z 04006KT M05/M13 A3039 RMK A01 T10521132  RH  054%=      5-min Rain = 0
KTIS 130515Z 04006KT M06/M14 A3039 RMK A01 T10561135  RH  054%=      5-min Rain = 0
KTIS 130520Z 04005KT M06/M13 A304 RMK A01 T10561133  RH  056%=      5-min Rain = 0
KTIS 130525Z 03004KT M06/M14 A304 RMK A01 T10591139  RH  054%=      5-min Rain = 0
KTIS 130530Z 04002KT M07/M14 A304 RMK A01 T10651140  RH  056%=      5-min Rain = 0
KTIS 130535Z 04003KT M07/M14 A304 RMK A01 T10671139  RH  058%=      5-min Rain = 0
KTIS 130540Z 05002KT M07/M14 A304 RMK A01 T10691138  RH  059%=      5-min Rain = 0
KTIS 130545Z 05001KT M07/M14 A304 RMK A01 T10691137  RH  060%=      5-min Rain = 0
KTIS 130550Z 10000KT M07/M14 A304 RMK A01 T10711140  RH  059%=      5-min Rain = 0
KTIS 130555Z 00000KT M07/M14 A304 RMK A01 T10731140  RH  060%=      5-min Rain = 0
KTIS 130600Z 00000KT M07/M14 A304 RMK A01 T10711138  RH  060%=      5-min Rain = 0

Page generated in 0.133 seconds.